sensor_id;sensor_type;location;lat;lon;timestamp;pressure;altitude;pressure_sealevel;temperature;humidity
43147;BME280;28752;48.266;7.402;2022-12-29T00:01:16;99061.69;;;10.60;68.86
43147;BME280;28752;48.266;7.402;2022-12-29T00:03:44;99045.88;;;10.76;68.18
43147;BME280;28752;48.266;7.402;2022-12-29T00:06:10;99051.28;;;10.93;67.22
43147;BME280;28752;48.266;7.402;2022-12-29T00:08:35;99053.97;;;11.01;67.19
43147;BME280;28752;48.266;7.402;2022-12-29T00:11:11;99034.50;;;11.10;66.79
43147;BME280;28752;48.266;7.402;2022-12-29T00:13:37;99053.06;;;11.18;66.65
43147;BME280;28752;48.266;7.402;2022-12-29T00:16:21;99049.44;;;11.28;66.40
43147;BME280;28752;48.266;7.402;2022-12-29T00:18:47;99042.28;;;11.20;66.83
43147;BME280;28752;48.266;7.402;2022-12-29T00:21:17;99034.34;;;11.20;66.71
43147;BME280;28752;48.266;7.402;2022-12-29T00:24:02;99021.41;;;11.17;66.55
43147;BME280;28752;48.266;7.402;2022-12-29T00:26:49;99037.03;;;11.28;66.27
43147;BME280;28752;48.266;7.402;2022-12-29T00:29:33;99027.44;;;11.27;66.39
43147;BME280;28752;48.266;7.402;2022-12-29T00:32:17;99025.59;;;11.28;66.00
43147;BME280;28752;48.266;7.402;2022-12-29T00:35:01;99017.16;;;11.32;65.87
43147;BME280;28752;48.266;7.402;2022-12-29T00:37:44;99015.69;;;11.30;65.82
43147;BME280;28752;48.266;7.402;2022-12-29T00:40:29;99010.88;;;11.25;66.27
43147;BME280;28752;48.266;7.402;2022-12-29T00:43:13;99022.47;;;11.32;65.57
43147;BME280;28752;48.266;7.402;2022-12-29T00:45:57;99021.47;;;11.33;65.46
43147;BME280;28752;48.266;7.402;2022-12-29T00:48:22;99028.44;;;11.34;65.72
43147;BME280;28752;48.266;7.402;2022-12-29T00:51:07;99026.13;;;11.40;65.49
43147;BME280;28752;48.266;7.402;2022-12-29T00:53:32;99031.28;;;11.41;65.71
43147;BME280;28752;48.266;7.402;2022-12-29T00:55:58;99034.75;;;11.42;65.61
43147;BME280;28752;48.266;7.402;2022-12-29T00:58:23;99022.66;;;11.39;65.87
43147;BME280;28752;48.266;7.402;2022-12-29T01:00:49;99031.91;;;11.35;65.98
43147;BME280;28752;48.266;7.402;2022-12-29T01:03:14;99021.16;;;11.36;66.33
43147;BME280;28752;48.266;7.402;2022-12-29T01:05:39;99028.94;;;11.38;66.26
43147;BME280;28752;48.266;7.402;2022-12-29T01:08:05;99030.09;;;11.35;65.62
43147;BME280;28752;48.266;7.402;2022-12-29T01:10:30;99021.16;;;11.36;66.12
43147;BME280;28752;48.266;7.402;2022-12-29T01:12:55;99025.28;;;11.31;66.48
43147;BME280;28752;48.266;7.402;2022-12-29T01:15:21;99032.38;;;11.22;67.14
43147;BME280;28752;48.266;7.402;2022-12-29T01:17:46;99025.41;;;11.21;67.72
43147;BME280;28752;48.266;7.402;2022-12-29T01:20:12;99029.22;;;11.18;67.63
43147;BME280;28752;48.266;7.402;2022-12-29T01:22:38;99021.56;;;11.15;68.03
43147;BME280;28752;48.266;7.402;2022-12-29T01:25:04;99006.53;;;11.24;66.97
43147;BME280;28752;48.266;7.402;2022-12-29T01:27:30;99026.97;;;11.40;66.85
43147;BME280;28752;48.266;7.402;2022-12-29T01:29:55;99027.59;;;11.34;67.21
43147;BME280;28752;48.266;7.402;2022-12-29T01:32:20;99037.03;;;11.28;67.72
43147;BME280;28752;48.266;7.402;2022-12-29T01:34:46;99027.09;;;11.30;67.67
43147;BME280;28752;48.266;7.402;2022-12-29T01:37:11;99020.66;;;11.33;67.56
43147;BME280;28752;48.266;7.402;2022-12-29T01:39:36;99015.00;;;11.28;67.53
43147;BME280;28752;48.266;7.402;2022-12-29T01:42:02;99025.63;;;11.36;67.75
43147;BME280;28752;48.266;7.402;2022-12-29T01:47:41;99037.75;;;11.47;67.30
43147;BME280;28752;48.266;7.402;2022-12-29T01:50:23;99041.44;;;11.54;67.05
43147;BME280;28752;48.266;7.402;2022-12-29T01:55:25;99038.59;;;11.47;67.65
43147;BME280;28752;48.266;7.402;2022-12-29T01:57:53;99028.13;;;11.37;68.09
43147;BME280;28752;48.266;7.402;2022-12-29T02:00:20;99031.75;;;11.36;67.98
43147;BME280;28752;48.266;7.402;2022-12-29T02:02:49;99044.16;;;11.28;68.63
43147;BME280;28752;48.266;7.402;2022-12-29T02:07:46;99032.50;;;11.12;69.27
43147;BME280;28752;48.266;7.402;2022-12-29T02:10:13;99048.94;;;11.24;68.94
43147;BME280;28752;48.266;7.402;2022-12-29T02:12:38;99038.50;;;11.23;69.46
43147;BME280;28752;48.266;7.402;2022-12-29T02:15:04;99032.50;;;11.12;69.82
43147;BME280;28752;48.266;7.402;2022-12-29T02:45:18;98988.97;;;11.23;71.27
43147;BME280;28752;48.266;7.402;2022-12-29T02:48:08;98996.06;;;11.14;71.81
43147;BME280;28752;48.266;7.402;2022-12-29T02:50:53;98994.03;;;11.00;72.30
43147;BME280;28752;48.266;7.402;2022-12-29T02:53:23;98986.41;;;10.97;72.67
43147;BME280;28752;48.266;7.402;2022-12-29T02:56:09;98987.16;;;10.81;73.33
43147;BME280;28752;48.266;7.402;2022-12-29T02:58:34;98983.97;;;10.69;74.34
43147;BME280;28752;48.266;7.402;2022-12-29T03:04:41;98982.16;;;10.43;75.63
43147;BME280;28752;48.266;7.402;2022-12-29T03:07:40;98994.03;;;10.39;75.94
43147;BME280;28752;48.266;7.402;2022-12-29T03:10:37;98997.75;;;10.28;76.59
43147;BME280;28752;48.266;7.402;2022-12-29T03:13:26;98980.59;;;10.14;76.98
43147;BME280;28752;48.266;7.402;2022-12-29T03:17:01;98985.66;;;10.08;77.44
43147;BME280;28752;48.266;7.402;2022-12-29T03:19:15;98994.44;;;10.08;77.56
43147;BME280;28752;48.266;7.402;2022-12-29T03:21:50;98989.16;;;10.08;77.64
43147;BME280;28752;48.266;7.402;2022-12-29T03:24:39;99004.41;;;10.14;76.68
43147;BME280;28752;48.266;7.402;2022-12-29T03:27:08;99018.47;;;10.33;75.83
43147;BME280;28752;48.266;7.402;2022-12-29T03:29:39;99019.13;;;10.35;75.90
43147;BME280;28752;48.266;7.402;2022-12-29T03:32:07;99024.19;;;10.46;75.33
43147;BME280;28752;48.266;7.402;2022-12-29T03:34:35;99022.78;;;10.60;74.98
43147;BME280;28752;48.266;7.402;2022-12-29T03:37:12;99014.84;;;10.60;74.83
43147;BME280;28752;48.266;7.402;2022-12-29T03:39:39;99003.78;;;10.65;75.01
43147;BME280;28752;48.266;7.402;2022-12-29T03:42:11;99002.66;;;10.68;74.63
43147;BME280;28752;48.266;7.402;2022-12-29T03:44:41;98993.63;;;10.87;74.32
43147;BME280;28752;48.266;7.402;2022-12-29T03:47:07;98984.41;;;10.91;73.97
43147;BME280;28752;48.266;7.402;2022-12-29T03:49:35;98971.31;;;10.89;74.03
43147;BME280;28752;48.266;7.402;2022-12-29T03:52:00;98967.63;;;10.82;74.34
43147;BME280;28752;48.266;7.402;2022-12-29T03:54:26;98965.44;;;10.69;74.81
43147;BME280;28752;48.266;7.402;2022-12-29T03:56:51;98962.09;;;10.67;75.34
43147;BME280;28752;48.266;7.402;2022-12-29T03:59:16;98954.59;;;10.54;75.77
43147;BME280;28752;48.266;7.402;2022-12-29T04:01:42;98949.66;;;10.59;74.49
43147;BME280;28752;48.266;7.402;2022-12-29T04:04:07;98963.13;;;10.74;74.09
43147;BME280;28752;48.266;7.402;2022-12-29T04:06:33;98965.13;;;10.80;74.09
43147;BME280;28752;48.266;7.402;2022-12-29T04:08:58;98950.63;;;10.93;73.30
43147;BME280;28752;48.266;7.402;2022-12-29T04:11:24;98936.09;;;11.05;71.81
43147;BME280;28752;48.266;7.402;2022-12-29T04:13:49;98932.63;;;11.13;72.12
43147;BME280;28752;48.266;7.402;2022-12-29T04:16:15;98939.09;;;11.10;72.84
43147;BME280;28752;48.266;7.402;2022-12-29T04:18:40;98942.19;;;10.97;73.52
43147;BME280;28752;48.266;7.402;2022-12-29T04:21:06;98951.47;;;10.93;73.72
43147;BME280;28752;48.266;7.402;2022-12-29T04:23:34;98951.63;;;10.92;74.05
43147;BME280;28752;48.266;7.402;2022-12-29T04:26:04;98950.06;;;10.81;74.62
43147;BME280;28752;48.266;7.402;2022-12-29T04:28:32;98942.59;;;10.76;74.42
43147;BME280;28752;48.266;7.402;2022-12-29T04:30:57;98946.91;;;10.77;74.47
43147;BME280;28752;48.266;7.402;2022-12-29T04:33:23;98940.28;;;10.73;74.70
43147;BME280;28752;48.266;7.402;2022-12-29T04:35:48;98951.56;;;10.75;74.66
43147;BME280;28752;48.266;7.402;2022-12-29T04:38:14;98957.16;;;10.72;75.20
43147;BME280;28752;48.266;7.402;2022-12-29T04:40:41;98938.41;;;10.57;75.41
43147;BME280;28752;48.266;7.402;2022-12-29T04:43:08;98952.50;;;10.66;75.70
43147;BME280;28752;48.266;7.402;2022-12-29T04:45:33;98951.81;;;10.64;75.42
43147;BME280;28752;48.266;7.402;2022-12-29T04:47:59;98963.91;;;10.66;75.42
43147;BME280;28752;48.266;7.402;2022-12-29T04:50:24;98949.38;;;10.71;75.06
43147;BME280;28752;48.266;7.402;2022-12-29T04:52:49;98958.31;;;10.70;74.96
43147;BME280;28752;48.266;7.402;2022-12-29T04:55:15;98950.84;;;10.65;75.00
43147;BME280;28752;48.266;7.402;2022-12-29T04:57:40;98952.97;;;10.61;75.37
43147;BME280;28752;48.266;7.402;2022-12-29T05:00:06;98959.09;;;10.62;75.22
43147;BME280;28752;48.266;7.402;2022-12-29T05:02:34;98955.94;;;10.58;75.28
43147;BME280;28752;48.266;7.402;2022-12-29T05:04:59;98952.59;;;10.56;75.40
43147;BME280;28752;48.266;7.402;2022-12-29T05:07:25;98947.94;;;10.50;75.70
43147;BME280;28752;48.266;7.402;2022-12-29T05:09:50;98957.13;;;10.38;76.41
43147;BME280;28752;48.266;7.402;2022-12-29T05:12:16;98945.63;;;10.29;76.57
43147;BME280;28752;48.266;7.402;2022-12-29T05:14:41;98935.06;;;10.29;76.42
43147;BME280;28752;48.266;7.402;2022-12-29T05:17:07;98936.00;;;10.20;76.73
43147;BME280;28752;48.266;7.402;2022-12-29T05:19:32;98946.72;;;10.18;77.27
43147;BME280;28752;48.266;7.402;2022-12-29T05:21:58;98947.97;;;10.06;77.36
43147;BME280;28752;48.266;7.402;2022-12-29T05:24:23;98944.19;;;10.08;77.53
43147;BME280;28752;48.266;7.402;2022-12-29T05:26:48;98949.94;;;10.04;77.39
43147;BME280;28752;48.266;7.402;2022-12-29T05:29:14;98944.41;;;10.15;76.90
43147;BME280;28752;48.266;7.402;2022-12-29T05:31:39;98939.75;;;10.17;76.11
43147;BME280;28752;48.266;7.402;2022-12-29T05:34:05;98926.03;;;10.13;76.08
43147;BME280;28752;48.266;7.402;2022-12-29T05:36:30;98947.34;;;10.12;76.41
43147;BME280;28752;48.266;7.402;2022-12-29T05:38:55;98945.44;;;9.96;76.64
43147;BME280;28752;48.266;7.402;2022-12-29T05:41:21;98930.59;;;9.85;77.25
43147;BME280;28752;48.266;7.402;2022-12-29T05:43:46;98936.81;;;9.76;77.83
43147;BME280;28752;48.266;7.402;2022-12-29T05:46:12;98941.28;;;9.75;77.72
43147;BME280;28752;48.266;7.402;2022-12-29T05:48:37;98939.47;;;9.76;77.87
43147;BME280;28752;48.266;7.402;2022-12-29T05:51:03;98933.31;;;9.67;78.25
43147;BME280;28752;48.266;7.402;2022-12-29T05:53:28;98920.16;;;9.57;78.28
43147;BME280;28752;48.266;7.402;2022-12-29T05:55:53;98914.25;;;9.64;78.10
43147;BME280;28752;48.266;7.402;2022-12-29T05:58:19;98928.91;;;9.58;78.63
43147;BME280;28752;48.266;7.402;2022-12-29T06:00:44;98925.13;;;9.60;78.24
43147;BME280;28752;48.266;7.402;2022-12-29T06:03:10;98922.03;;;9.65;78.08
43147;BME280;28752;48.266;7.402;2022-12-29T06:05:35;98908.00;;;9.65;78.25
43147;BME280;28752;48.266;7.402;2022-12-29T06:08:00;98922.88;;;9.66;78.03
43147;BME280;28752;48.266;7.402;2022-12-29T06:10:26;98910.78;;;9.45;78.12
43147;BME280;28752;48.266;7.402;2022-12-29T06:12:51;98912.31;;;9.66;77.35
43147;BME280;28752;48.266;7.402;2022-12-29T06:15:17;98913.56;;;9.80;76.69
43147;BME280;28752;48.266;7.402;2022-12-29T06:17:43;98926.38;;;9.92;76.38
43147;BME280;28752;48.266;7.402;2022-12-29T06:20:09;98923.28;;;9.97;75.77
43147;BME280;28752;48.266;7.402;2022-12-29T06:22:37;98921.53;;;10.06;75.23
43147;BME280;28752;48.266;7.402;2022-12-29T06:25:03;98929.50;;;10.14;74.60
43147;BME280;28752;48.266;7.402;2022-12-29T06:27:28;98923.19;;;10.07;75.03
43147;BME280;28752;48.266;7.402;2022-12-29T06:29:54;98915.19;;;9.99;75.13
43147;BME280;28752;48.266;7.402;2022-12-29T06:32:20;98909.41;;;10.03;75.05
43147;BME280;28752;48.266;7.402;2022-12-29T06:34:45;98908.75;;;10.01;75.21
43147;BME280;28752;48.266;7.402;2022-12-29T06:37:11;98898.00;;;10.98;78.53
43147;BME280;28752;48.266;7.402;2022-12-29T06:39:36;98917.25;;;11.16;73.96
43147;BME280;28752;48.266;7.402;2022-12-29T06:42:02;98897.69;;;11.09;70.91
43147;BME280;28752;48.266;7.402;2022-12-29T06:44:28;98900.53;;;11.32;70.06
43147;BME280;28752;48.266;7.402;2022-12-29T06:46:53;98899.72;;;11.40;70.07
43147;BME280;28752;48.266;7.402;2022-12-29T06:49:18;98896.06;;;11.25;69.75
43147;BME280;28752;48.266;7.402;2022-12-29T06:51:44;98898.38;;;11.19;69.57
43147;BME280;28752;48.266;7.402;2022-12-29T06:54:09;98902.28;;;10.99;69.96
43147;BME280;28752;48.266;7.402;2022-12-29T06:56:34;98885.09;;;11.03;69.92
43147;BME280;28752;48.266;7.402;2022-12-29T06:59:00;98896.91;;;11.25;69.57
43147;BME280;28752;48.266;7.402;2022-12-29T07:01:26;98928.38;;;11.36;69.23
43147;BME280;28752;48.266;7.402;2022-12-29T07:03:51;98933.97;;;11.09;69.72
43147;BME280;28752;48.266;7.402;2022-12-29T07:06:17;98923.16;;;10.94;69.73
43147;BME280;28752;48.266;7.402;2022-12-29T07:08:42;98928.38;;;10.77;70.50
43147;BME280;28752;48.266;7.402;2022-12-29T07:11:07;98924.84;;;10.60;71.01
43147;BME280;28752;48.266;7.402;2022-12-29T07:13:33;98930.13;;;10.60;71.54
43147;BME280;28752;48.266;7.402;2022-12-29T07:15:59;98932.31;;;10.65;71.41
43147;BME280;28752;48.266;7.402;2022-12-29T07:18:24;98924.34;;;10.57;71.80
43147;BME280;28752;48.266;7.402;2022-12-29T07:20:49;98930.56;;;10.47;72.03
43147;BME280;28752;48.266;7.402;2022-12-29T07:23:15;98918.81;;;10.42;72.38
43147;BME280;28752;48.266;7.402;2022-12-29T07:25:40;98911.22;;;10.47;71.44
43147;BME280;28752;48.266;7.402;2022-12-29T07:28:06;98917.38;;;10.56;71.25
43147;BME280;28752;48.266;7.402;2022-12-29T07:30:32;98905.81;;;10.57;71.22
43147;BME280;28752;48.266;7.402;2022-12-29T07:32:57;98884.97;;;10.62;70.54
43147;BME280;28752;48.266;7.402;2022-12-29T07:35:23;98881.47;;;11.04;68.92
43147;BME280;28752;48.266;7.402;2022-12-29T07:37:48;98904.53;;;11.28;68.45
43147;BME280;28752;48.266;7.402;2022-12-29T07:40:14;98908.53;;;11.41;68.00
43147;BME280;28752;48.266;7.402;2022-12-29T07:42:40;98915.78;;;11.38;68.45
43147;BME280;28752;48.266;7.402;2022-12-29T07:45:05;98921.94;;;11.47;68.18
43147;BME280;28752;48.266;7.402;2022-12-29T07:47:31;98928.38;;;11.45;68.48
43147;BME280;28752;48.266;7.402;2022-12-29T07:49:57;98935.69;;;11.43;68.72
43147;BME280;28752;48.266;7.402;2022-12-29T07:52:22;98930.38;;;11.43;68.71
43147;BME280;28752;48.266;7.402;2022-12-29T07:54:47;98934.88;;;11.42;68.69
43147;BME280;28752;48.266;7.402;2022-12-29T07:57:13;98952.41;;;11.43;68.95
43147;BME280;28752;48.266;7.402;2022-12-29T07:59:38;98939.84;;;11.45;68.74
43147;BME280;28752;48.266;7.402;2022-12-29T08:02:03;98951.13;;;11.55;68.31
43147;BME280;28752;48.266;7.402;2022-12-29T08:04:28;98954.44;;;11.66;68.62
43147;BME280;28752;48.266;7.402;2022-12-29T08:06:54;98954.28;;;11.59;68.97
43147;BME280;28752;48.266;7.402;2022-12-29T08:09:19;98958.09;;;11.65;69.12
43147;BME280;28752;48.266;7.402;2022-12-29T08:11:45;98958.41;;;11.70;68.77
43147;BME280;28752;48.266;7.402;2022-12-29T08:14:10;98959.41;;;11.69;69.06
43147;BME280;28752;48.266;7.402;2022-12-29T08:16:36;98970.00;;;11.69;69.55
43147;BME280;28752;48.266;7.402;2022-12-29T08:19:01;98978.00;;;11.77;69.78
43147;BME280;28752;48.266;7.402;2022-12-29T08:21:28;98975.50;;;11.76;69.96
43147;BME280;28752;48.266;7.402;2022-12-29T08:23:53;98968.41;;;11.93;69.69
43147;BME280;28752;48.266;7.402;2022-12-29T08:26:19;98971.69;;;11.86;69.72
43147;BME280;28752;48.266;7.402;2022-12-29T08:28:44;98986.63;;;12.04;69.41
43147;BME280;28752;48.266;7.402;2022-12-29T08:31:10;98989.97;;;12.14;69.58
43147;BME280;28752;48.266;7.402;2022-12-29T08:33:35;98979.84;;;12.09;69.23
43147;BME280;28752;48.266;7.402;2022-12-29T08:36:03;98985.84;;;12.12;69.39
43147;BME280;28752;48.266;7.402;2022-12-29T08:38:30;99010.22;;;12.15;69.81
43147;BME280;28752;48.266;7.402;2022-12-29T08:40:57;99005.56;;;12.09;70.25
43147;BME280;28752;48.266;7.402;2022-12-29T08:43:23;99011.34;;;12.13;70.36
43147;BME280;28752;48.266;7.402;2022-12-29T08:45:48;99006.22;;;12.11;70.68
43147;BME280;28752;48.266;7.402;2022-12-29T08:48:13;99004.72;;;12.08;70.49
43147;BME280;28752;48.266;7.402;2022-12-29T08:50:43;98999.28;;;12.10;70.38
43147;BME280;28752;48.266;7.402;2022-12-29T08:53:09;98987.28;;;11.89;70.92
43147;BME280;28752;48.266;7.402;2022-12-29T08:55:34;99004.72;;;12.00;70.87
43147;BME280;28752;48.266;7.402;2022-12-29T08:58:00;98997.75;;;11.99;71.28
43147;BME280;28752;48.266;7.402;2022-12-29T09:00:25;99012.03;;;12.15;71.21
43147;BME280;28752;48.266;7.402;2022-12-29T09:02:50;99008.53;;;12.14;70.79
43147;BME280;28752;48.266;7.402;2022-12-29T09:05:16;99015.34;;;12.17;70.65
43147;BME280;28752;48.266;7.402;2022-12-29T09:07:41;99015.50;;;12.23;69.93
43147;BME280;28752;48.266;7.402;2022-12-29T09:10:07;99024.13;;;12.34;69.39
43147;BME280;28752;48.266;7.402;2022-12-29T09:12:32;99023.13;;;12.51;67.83
43147;BME280;28752;48.266;7.402;2022-12-29T09:14:57;99028.25;;;12.61;66.64
43147;BME280;28752;48.266;7.402;2022-12-29T09:17:23;99031.38;;;12.73;65.78
43147;BME280;28752;48.266;7.402;2022-12-29T09:20:10;99029.38;;;12.75;65.93
43147;BME280;28752;48.266;7.402;2022-12-29T09:22:36;99040.94;;;12.90;64.93
43147;BME280;28752;48.266;7.402;2022-12-29T09:25:01;99021.38;;;12.91;64.18
43147;BME280;28752;48.266;7.402;2022-12-29T09:27:27;99036.56;;;13.14;64.35
43147;BME280;28752;48.266;7.402;2022-12-29T09:29:52;99035.25;;;13.18;62.25
43147;BME280;28752;48.266;7.402;2022-12-29T09:32:18;99038.66;;;13.27;62.18
43147;BME280;28752;48.266;7.402;2022-12-29T09:34:43;99048.13;;;13.29;59.29
43147;BME280;28752;48.266;7.402;2022-12-29T09:37:08;99025.06;;;13.22;59.64
43147;BME280;28752;48.266;7.402;2022-12-29T09:39:33;99056.75;;;13.31;58.82
43147;BME280;28752;48.266;7.402;2022-12-29T09:45:40;99052.78;;;13.44;58.78
43147;BME280;28752;48.266;7.402;2022-12-29T09:48:04;99056.69;;;13.56;58.52
43147;BME280;28752;48.266;7.402;2022-12-29T09:50:37;99062.03;;;13.56;59.10
43147;BME280;28752;48.266;7.402;2022-12-29T09:55:37;99047.09;;;13.47;60.96
43147;BME280;28752;48.266;7.402;2022-12-29T09:58:29;99067.72;;;13.45;60.79
43147;BME280;28752;48.266;7.402;2022-12-29T10:03:48;99067.56;;;13.30;63.01
43147;BME280;28752;48.266;7.402;2022-12-29T10:09:02;99067.47;;;13.07;68.10
43147;BME280;28752;48.266;7.402;2022-12-29T10:12:06;99074.16;;;12.94;67.81
43147;BME280;28752;48.266;7.402;2022-12-29T10:25:31;99042.00;;;13.21;68.65
43147;BME280;28752;48.266;7.402;2022-12-29T10:27:59;99037.91;;;13.18;68.81
43147;BME280;28752;48.266;7.402;2022-12-29T10:30:26;99043.72;;;13.13;69.09
43147;BME280;28752;48.266;7.402;2022-12-29T10:32:54;99049.31;;;13.27;69.31
43147;BME280;28752;48.266;7.402;2022-12-29T10:35:26;99055.66;;;13.18;69.76
43147;BME280;28752;48.266;7.402;2022-12-29T10:43:37;99046.91;;;13.01;71.27
43147;BME280;28752;48.266;7.402;2022-12-29T10:46:14;99048.06;;;12.98;71.86
43147;BME280;28752;48.266;7.402;2022-12-29T10:48:41;99052.59;;;12.89;70.25
43147;BME280;28752;48.266;7.402;2022-12-29T10:51:10;99048.63;;;12.85;71.81
43147;BME280;28752;48.266;7.402;2022-12-29T10:53:43;99052.59;;;12.81;72.79
43147;BME280;28752;48.266;7.402;2022-12-29T10:56:32;99044.81;;;12.79;73.37
43147;BME280;28752;48.266;7.402;2022-12-29T10:59:03;99042.16;;;12.79;73.50
43147;BME280;28752;48.266;7.402;2022-12-29T11:01:37;99032.88;;;12.75;73.70
43147;BME280;28752;48.266;7.402;2022-12-29T11:04:25;99022.91;;;12.77;73.95
43147;BME280;28752;48.266;7.402;2022-12-29T11:06:53;99029.50;;;12.90;72.97
43147;BME280;28752;48.266;7.402;2022-12-29T11:09:24;99032.03;;;12.83;73.24
43147;BME280;28752;48.266;7.402;2022-12-29T11:11:52;99035.19;;;12.78;73.25
43147;BME280;28752;48.266;7.402;2022-12-29T11:14:26;99036.88;;;12.63;73.60
43147;BME280;28752;48.266;7.402;2022-12-29T11:17:02;99041.53;;;12.61;73.00
43147;BME280;28752;48.266;7.402;2022-12-29T11:19:30;99031.38;;;12.65;73.42
43147;BME280;28752;48.266;7.402;2022-12-29T11:24:44;99037.03;;;12.61;73.03
43147;BME280;28752;48.266;7.402;2022-12-29T11:29:41;99021.84;;;12.95;67.74
43147;BME280;28752;48.266;7.402;2022-12-29T11:32:28;99025.13;;;13.05;68.54
43147;BME280;28752;48.266;7.402;2022-12-29T11:34:57;99035.41;;;13.08;70.52
43147;BME280;28752;48.266;7.402;2022-12-29T11:37:36;99031.97;;;13.00;71.12
43147;BME280;28752;48.266;7.402;2022-12-29T11:45:36;99032.69;;;12.85;73.86
43147;BME280;28752;48.266;7.402;2022-12-29T11:48:28;99022.56;;;12.80;74.51
43147;BME280;28752;48.266;7.402;2022-12-29T11:50:57;99015.75;;;12.78;75.16
43147;BME280;28752;48.266;7.402;2022-12-29T11:53:47;99013.44;;;12.75;75.79
43147;BME280;28752;48.266;7.402;2022-12-29T11:56:21;99006.28;;;12.84;75.59
43147;BME280;28752;48.266;7.402;2022-12-29T11:58:49;99005.06;;;12.94;75.64
43147;BME280;28752;48.266;7.402;2022-12-29T12:04:16;99003.06;;;12.96;75.16
43147;BME280;28752;48.266;7.402;2022-12-29T12:07:11;99002.41;;;13.03;74.93
43147;BME280;28752;48.266;7.402;2022-12-29T12:10:03;99003.00;;;13.13;75.51
43147;BME280;28752;48.266;7.402;2022-12-29T12:12:41;98995.03;;;13.13;75.39
43147;BME280;28752;48.266;7.402;2022-12-29T12:15:17;98997.50;;;13.23;74.62
43147;BME280;28752;48.266;7.402;2022-12-29T12:18:04;98991.03;;;13.17;74.65
43147;BME280;28752;48.266;7.402;2022-12-29T12:20:50;99000.28;;;13.38;74.70
43147;BME280;28752;48.266;7.402;2022-12-29T12:26:28;98993.16;;;13.61;75.05
43147;BME280;28752;48.266;7.402;2022-12-29T12:29:12;98987.94;;;13.45;76.10
43147;BME280;28752;48.266;7.402;2022-12-29T12:32:01;98985.94;;;13.47;76.17
43147;BME280;28752;48.266;7.402;2022-12-29T12:34:35;98986.94;;;13.46;76.33
43147;BME280;28752;48.266;7.402;2022-12-29T12:37:12;98981.72;;;13.53;76.19
43147;BME280;28752;48.266;7.402;2022-12-29T12:40:15;98977.38;;;13.60;76.04
43147;BME280;28752;48.266;7.402;2022-12-29T12:42:56;98982.81;;;13.66;75.36
43147;BME280;28752;48.266;7.402;2022-12-29T12:46:11;98980.84;;;13.60;74.76
43147;BME280;28752;48.266;7.402;2022-12-29T12:49:08;98988.78;;;13.45;74.98
43147;BME280;28752;48.266;7.402;2022-12-29T13:00:48;98954.16;;;13.14;76.23
43147;BME280;28752;48.266;7.402;2022-12-29T13:06:18;98954.81;;;12.85;78.07
43147;BME280;28752;48.266;7.402;2022-12-29T13:08:58;98948.31;;;12.87;78.26
43147;BME280;28752;48.266;7.402;2022-12-29T13:14:16;98926.88;;;12.89;78.47
43147;BME280;28752;48.266;7.402;2022-12-29T13:17:02;98918.25;;;12.87;78.28
43147;BME280;28752;48.266;7.402;2022-12-29T13:19:41;98914.81;;;12.78;78.84
43147;BME280;28752;48.266;7.402;2022-12-29T13:22:20;98920.97;;;12.78;78.17
43147;BME280;28752;48.266;7.402;2022-12-29T13:27:45;98931.75;;;12.77;77.63
43147;BME280;28752;48.266;7.402;2022-12-29T13:30:18;98934.31;;;12.93;77.13
43147;BME280;28752;48.266;7.402;2022-12-29T13:38:41;98923.59;;;13.18;73.58
43147;BME280;28752;48.266;7.402;2022-12-29T13:41:14;98924.13;;;13.13;72.87
43147;BME280;28752;48.266;7.402;2022-12-29T13:43:44;98930.94;;;13.08;72.35
43147;BME280;28752;48.266;7.402;2022-12-29T13:46:22;98924.03;;;12.98;73.14
43147;BME280;28752;48.266;7.402;2022-12-29T13:48:54;98921.91;;;12.86;73.19
43147;BME280;28752;48.266;7.402;2022-12-29T13:51:23;98919.59;;;12.83;73.08
43147;BME280;28752;48.266;7.402;2022-12-29T13:53:59;98923.28;;;12.82;73.49
43147;BME280;28752;48.266;7.402;2022-12-29T14:02:15;98944.69;;;12.80;74.17
43147;BME280;28752;48.266;7.402;2022-12-29T14:05:14;98942.38;;;12.77;73.32
43147;BME280;28752;48.266;7.402;2022-12-29T14:08:10;98945.22;;;12.75;73.84
43147;BME280;28752;48.266;7.402;2022-12-29T14:10:48;98957.34;;;12.70;73.45
43147;BME280;28752;48.266;7.402;2022-12-29T14:15:43;98968.09;;;12.76;73.01
43147;BME280;28752;48.266;7.402;2022-12-29T14:18:17;98983.56;;;12.73;73.84
43147;BME280;28752;48.266;7.402;2022-12-29T14:26:52;98991.94;;;12.45;79.38
43147;BME280;28752;48.266;7.402;2022-12-29T14:31:49;99005.41;;;12.11;83.46
43147;BME280;28752;48.266;7.402;2022-12-29T14:34:25;99010.03;;;12.17;82.60
43147;BME280;28752;48.266;7.402;2022-12-29T14:36:58;99019.47;;;11.95;83.85
43147;BME280;28752;48.266;7.402;2022-12-29T14:39:35;99019.59;;;11.77;86.24
43147;BME280;28752;48.266;7.402;2022-12-29T14:45:31;99023.59;;;11.22;89.52
43147;BME280;28752;48.266;7.402;2022-12-29T14:47:40;99031.28;;;10.98;91.34
43147;BME280;28752;48.266;7.402;2022-12-29T14:50:21;99025.38;;;10.78;92.31
43147;BME280;28752;48.266;7.402;2022-12-29T14:52:54;99038.94;;;10.75;93.60
43147;BME280;28752;48.266;7.402;2022-12-29T14:55:40;99023.84;;;10.68;94.96
43147;BME280;28752;48.266;7.402;2022-12-29T14:58:20;99030.22;;;10.57;94.98
43147;BME280;28752;48.266;7.402;2022-12-29T15:00:47;98993.25;;;10.29;97.23
43147;BME280;28752;48.266;7.402;2022-12-29T15:03:18;99022.84;;;10.42;97.54
43147;BME280;28752;48.266;7.402;2022-12-29T15:06:16;99010.66;;;10.31;97.20
43147;BME280;28752;48.266;7.402;2022-12-29T15:08:54;99008.84;;;10.32;97.75
43147;BME280;28752;48.266;7.402;2022-12-29T15:11:42;99011.47;;;10.32;96.99
43147;BME280;28752;48.266;7.402;2022-12-29T15:14:35;99007.41;;;10.38;97.30
43147;BME280;28752;48.266;7.402;2022-12-29T15:17:09;99008.78;;;10.42;95.67
43147;BME280;28752;48.266;7.402;2022-12-29T15:19:36;99019.69;;;10.39;94.91
43147;BME280;28752;48.266;7.402;2022-12-29T15:22:02;99025.19;;;10.27;94.75
43147;BME280;28752;48.266;7.402;2022-12-29T15:24:28;99021.63;;;10.37;93.79
43147;BME280;28752;48.266;7.402;2022-12-29T15:26:55;99019.41;;;10.32;94.08